Time;durP1;ratioP1;P1;durP2;ratioP2;P2;SDS_P1;SDS_P2;PMS_P1;PMS_P2;Temp;Humidity;BMP_temperature;BMP_pressure;BME280_temperature;BME280_humidity;BME280_pressure;Samples;Min_cycle;Max_cycle;Signal;HPM_P1;HPM_P2
2021/07/06 00:01:26;;;;;;;4.47;2.40;;;;;;;;;;5095905;28;20212;-75
2021/07/06 00:03:54;;;;;;;3.03;1.93;;;;;;;;;;5086162;28;20212;-76
2021/07/06 00:06:21;;;;;;;2.30;1.93;;;;;;;;;;5093831;28;20246;-76
2021/07/06 00:08:48;;;;;;;2.10;1.90;;;;;;;;;;5094250;28;20300;-75
2021/07/06 00:11:16;;;;;;;3.90;2.23;;;;;;;;;;5095773;28;20206;-75
2021/07/06 00:13:44;;;;;;;3.07;1.73;;;;;;;;;;5087840;28;20208;-76
2021/07/06 00:16:11;;;;;;;4.50;2.10;;;;;;;;;;5086218;28;20225;-75
2021/07/06 00:18:39;;;;;;;3.37;2.30;;;;;;;;;;5086652;28;20210;-75
2021/07/06 00:21:06;;;;;;;2.50;1.70;;;;;;;;;;5086895;28;20537;-75
2021/07/06 00:23:33;;;;;;;5.53;2.10;;;;;;;;;;5083026;28;20200;-76
2021/07/06 00:26:00;;;;;;;3.43;2.03;;;;;;;;;;5092175;28;20222;-76
2021/07/06 00:28:27;;;;;;;2.60;2.10;;;;;;;;;;5093564;28;20197;-76
2021/07/06 00:30:56;;;;;;;4.73;2.30;;;;;;;;;;5091128;28;20197;-76
2021/07/06 00:33:28;;;;;;;5.40;2.00;;;;;;;;;;5092421;28;20582;-76
2021/07/06 00:35:57;;;;;;;3.07;2.10;;;;;;;;;;5092486;28;20596;-75
2021/07/06 00:38:24;;;;;;;2.73;2.00;;;;;;;;;;5094383;28;20608;-76
2021/07/06 00:40:52;;;;;;;4.20;2.00;;;;;;;;;;5091506;28;20674;-76
2021/07/06 00:43:19;;;;;;;5.73;2.40;;;;;;;;;;5093107;28;20210;-76
2021/07/06 00:45:46;;;;;;;2.10;1.80;;;;;;;;;;5092494;28;20324;-76
2021/07/06 00:48:15;;;;;;;3.50;2.20;;;;;;;;;;5096401;28;20258;-76
2021/07/06 00:50:42;;;;;;;4.43;2.10;;;;;;;;;;5093009;28;20215;-75
2021/07/06 00:53:09;;;;;;;4.60;2.00;;;;;;;;;;5097804;28;20205;-76
2021/07/06 00:55:36;;;;;;;3.90;2.10;;;;;;;;;;5094733;28;20601;-76
2021/07/06 00:58:04;;;;;;;5.47;2.67;;;;;;;;;;5098864;28;20867;-76
2021/07/06 01:00:31;;;;;;;3.77;2.40;;;;;;;;;;5095527;28;20197;-76
2021/07/06 01:02:59;;;;;;;3.27;1.90;;;;;;;;;;5095190;28;20720;-76
2021/07/06 01:05:28;;;;;;;6.50;2.10;;;;;;;;;;5094889;28;20229;-76
2021/07/06 01:07:55;;;;;;;4.97;2.20;;;;;;;;;;5097292;28;20285;-76
2021/07/06 01:10:22;;;;;;;2.50;2.00;;;;;;;;;;5093615;28;20207;-75
2021/07/06 01:12:52;;;;;;;3.77;2.00;;;;;;;;;;5095304;28;20215;-75
2021/07/06 01:15:20;;;;;;;4.83;2.37;;;;;;;;;;5095254;28;20645;-75
2021/07/06 01:17:57;;;;;;;7.57;2.40;;;;;;;;;;5095808;28;20228;-75
2021/07/06 01:20:25;;;;;;;5.27;2.10;;;;;;;;;;5093381;28;20197;-75
2021/07/06 01:22:53;;;;;;;10.57;2.67;;;;;;;;;;5096840;28;20209;-76
2021/07/06 01:25:20;;;;;;;5.63;2.40;;;;;;;;;;5093853;28;20225;-76
2021/07/06 01:27:48;;;;;;;5.50;2.20;;;;;;;;;;5093685;28;20216;-76
2021/07/06 01:30:16;;;;;;;6.00;2.40;;;;;;;;;;5092316;28;20661;-76
2021/07/06 01:32:44;;;;;;;4.27;2.17;;;;;;;;;;5094541;28;20363;-76
2021/07/06 01:35:13;;;;;;;4.33;2.40;;;;;;;;;;5093333;28;20722;-75
2021/07/06 01:37:43;;;;;;;5.23;2.70;;;;;;;;;;5095019;28;20227;-75
2021/07/06 01:40:12;;;;;;;3.60;2.30;;;;;;;;;;5096258;28;20236;-76
2021/07/06 01:42:39;;;;;;;3.07;2.23;;;;;;;;;;5096309;28;20192;-76
2021/07/06 01:45:08;;;;;;;2.60;2.10;;;;;;;;;;5095201;28;20236;-75
2021/07/06 01:47:37;;;;;;;6.47;2.77;;;;;;;;;;5092850;28;20239;-76
2021/07/06 01:50:05;;;;;;;3.33;2.33;;;;;;;;;;5094458;28;20579;-76
2021/07/06 01:52:32;;;;;;;3.13;2.47;;;;;;;;;;5096224;28;20284;-76
2021/07/06 01:54:59;;;;;;;5.83;2.80;;;;;;;;;;5095849;28;20228;-76
2021/07/06 01:57:27;;;;;;;3.43;2.53;;;;;;;;;;5093997;28;20222;-76
2021/07/06 01:59:55;;;;;;;6.30;2.37;;;;;;;;;;5090341;28;20609;-76
2021/07/06 02:02:22;;;;;;;7.07;2.60;;;;;;;;;;5095233;28;20201;-76
2021/07/06 02:04:50;;;;;;;8.73;2.43;;;;;;;;;;5093288;28;20229;-76
2021/07/06 02:07:21;;;;;;;6.13;3.10;;;;;;;;;;5094315;28;20647;-76
2021/07/06 02:09:48;;;;;;;9.37;3.03;;;;;;;;;;5094563;28;20648;-76
2021/07/06 02:12:15;;;;;;;11.03;3.03;;;;;;;;;;5093333;28;20731;-76
2021/07/06 02:14:43;;;;;;;6.37;3.20;;;;;;;;;;5091718;28;20233;-76
2021/07/06 02:17:12;;;;;;;4.37;2.93;;;;;;;;;;5096211;28;20251;-76
2021/07/06 02:19:39;;;;;;;4.97;3.00;;;;;;;;;;5092174;28;20211;-76
2021/07/06 02:22:06;;;;;;;9.43;3.07;;;;;;;;;;5095981;28;20227;-76
2021/07/06 02:24:33;;;;;;;9.30;3.10;;;;;;;;;;5090385;28;20244;-76
2021/07/06 02:27:00;;;;;;;4.97;2.17;;;;;;;;;;5092908;28;20293;-76
2021/07/06 02:29:28;;;;;;;6.83;2.40;;;;;;;;;;5094295;28;20216;-76
2021/07/06 02:31:56;;;;;;;6.40;2.80;;;;;;;;;;5094316;28;20201;-76
2021/07/06 02:34:23;;;;;;;4.93;2.60;;;;;;;;;;5094876;28;20213;-76
2021/07/06 02:36:50;;;;;;;5.10;2.30;;;;;;;;;;5091319;28;20602;-76
2021/07/06 02:39:18;;;;;;;5.47;2.23;;;;;;;;;;5092406;28;20216;-76
2021/07/06 02:41:45;;;;;;;8.30;2.30;;;;;;;;;;5094639;28;20212;-76
2021/07/06 02:44:12;;;;;;;3.17;2.17;;;;;;;;;;5092933;28;20352;-76
2021/07/06 02:46:39;;;;;;;4.30;2.80;;;;;;;;;;5088259;28;20392;-76
2021/07/06 02:49:08;;;;;;;6.10;2.50;;;;;;;;;;5090145;28;20205;-76
2021/07/06 02:51:35;;;;;;;4.13;2.63;;;;;;;;;;5093865;28;20292;-76
2021/07/06 02:54:03;;;;;;;8.27;2.43;;;;;;;;;;5094927;28;20232;-76
2021/07/06 02:56:30;;;;;;;3.43;2.30;;;;;;;;;;5089185;28;20217;-76
2021/07/06 02:58:58;;;;;;;7.97;2.80;;;;;;;;;;5091720;28;20284;-76
2021/07/06 03:01:25;;;;;;;3.17;2.57;;;;;;;;;;5092935;28;20205;-76
2021/07/06 03:03:52;;;;;;;11.27;2.80;;;;;;;;;;5092490;28;20201;-75
2021/07/06 03:06:21;;;;;;;4.87;2.73;;;;;;;;;;5092740;28;20220;-76
2021/07/06 03:08:52;;;;;;;9.60;2.77;;;;;;;;;;5089950;28;20747;-75
2021/07/06 03:11:19;;;;;;;6.43;2.50;;;;;;;;;;5093924;28;22021;-75
2021/07/06 03:13:46;;;;;;;4.23;2.60;;;;;;;;;;5090940;28;20661;-76
2021/07/06 03:16:13;;;;;;;3.47;2.90;;;;;;;;;;5089647;28;20217;-76
2021/07/06 03:18:40;;;;;;;7.00;2.90;;;;;;;;;;5093369;28;20469;-76
2021/07/06 03:21:07;;;;;;;6.80;2.90;;;;;;;;;;5092924;28;20279;-76
2021/07/06 03:23:36;;;;;;;3.73;2.67;;;;;;;;;;5092720;28;20226;-76
2021/07/06 03:26:03;;;;;;;6.70;2.57;;;;;;;;;;5089575;28;20242;-76
2021/07/06 03:28:30;;;;;;;7.27;2.87;;;;;;;;;;5091025;28;20201;-77
2021/07/06 03:30:57;;;;;;;6.27;2.60;;;;;;;;;;5094960;28;20224;-75
2021/07/06 03:33:25;;;;;;;8.80;2.63;;;;;;;;;;5092114;28;20203;-75
2021/07/06 03:35:52;;;;;;;9.47;4.90;;;;;;;;;;5091324;28;20220;-76
2021/07/06 03:38:19;;;;;;;22.20;5.53;;;;;;;;;;5090175;28;20305;-76
2021/07/06 03:40:48;;;;;;;18.13;6.53;;;;;;;;;;5090161;28;20204;-76
2021/07/06 03:43:15;;;;;;;37.10;6.97;;;;;;;;;;5091215;28;20209;-76
2021/07/06 03:45:42;;;;;;;22.47;7.07;;;;;;;;;;5092792;28;20299;-75
2021/07/06 03:48:09;;;;;;;16.87;7.50;;;;;;;;;;5091412;28;20194;-75
2021/07/06 03:50:36;;;;;;;18.93;6.73;;;;;;;;;;5094385;28;20199;-75
2021/07/06 03:53:04;;;;;;;11.90;6.87;;;;;;;;;;5092282;28;20212;-75
2021/07/06 03:55:31;;;;;;;28.07;8.03;;;;;;;;;;5090003;28;20224;-76
2021/07/06 03:58:00;;;;;;;14.57;7.03;;;;;;;;;;5092351;28;20231;-76
2021/07/06 04:00:28;;;;;;;14.03;7.30;;;;;;;;;;5094444;28;20197;-76
2021/07/06 04:02:56;;;;;;;8.67;5.87;;;;;;;;;;5091082;28;21184;-76
2021/07/06 04:05:23;;;;;;;11.47;7.10;;;;;;;;;;5090183;28;20221;-76
2021/07/06 04:07:51;;;;;;;12.83;6.83;;;;;;;;;;5092232;28;20205;-76
2021/07/06 04:10:19;;;;;;;10.03;6.40;;;;;;;;;;5090683;28;20205;-76
2021/07/06 04:12:47;;;;;;;16.23;7.20;;;;;;;;;;5088939;28;20307;-76
2021/07/06 04:15:16;;;;;;;11.20;7.00;;;;;;;;;;5090881;28;21168;-76
2021/07/06 04:17:43;;;;;;;14.13;6.50;;;;;;;;;;5088431;28;20224;-76
2021/07/06 04:20:11;;;;;;;12.87;6.70;;;;;;;;;;5089266;28;20210;-76
2021/07/06 04:22:38;;;;;;;20.97;7.37;;;;;;;;;;5090654;28;20208;-76
2021/07/06 04:25:06;;;;;;;13.97;7.80;;;;;;;;;;5086146;28;20229;-76
2021/07/06 04:27:33;;;;;;;14.60;7.73;;;;;;;;;;5093216;28;20344;-76
2021/07/06 04:30:01;;;;;;;12.50;7.40;;;;;;;;;;5096300;28;20298;-81
2021/07/06 04:32:29;;;;;;;16.50;7.43;;;;;;;;;;5105178;22;20705;-73
2021/07/06 04:34:56;;;;;;;14.73;7.00;;;;;;;;;;5097261;28;20281;-73
2021/07/06 04:37:23;;;;;;;13.13;6.60;;;;;;;;;;5096794;28;20226;-74
2021/07/06 04:39:51;;;;;;;11.50;6.13;;;;;;;;;;5097900;28;20616;-74
2021/07/06 04:42:18;;;;;;;11.60;5.67;;;;;;;;;;5099182;28;20292;-74
2021/07/06 04:44:45;;;;;;;12.10;4.97;;;;;;;;;;5096277;28;20311;-75
2021/07/06 04:47:12;;;;;;;7.47;4.23;;;;;;;;;;5100707;28;20667;-74
2021/07/06 04:49:41;;;;;;;9.07;4.40;;;;;;;;;;5096630;28;20889;-73
2021/07/06 04:52:08;;;;;;;7.63;4.40;;;;;;;;;;5095551;28;20312;-75
2021/07/06 04:54:36;;;;;;;9.00;4.37;;;;;;;;;;5099964;28;20229;-76
2021/07/06 04:57:03;;;;;;;7.23;4.40;;;;;;;;;;5096090;28;20457;-76
2021/07/06 04:59:30;;;;;;;6.27;4.57;;;;;;;;;;5097037;28;20647;-76
2021/07/06 05:01:57;;;;;;;9.67;4.40;;;;;;;;;;5098760;28;20204;-74
2021/07/06 05:04:24;;;;;;;10.03;4.87;;;;;;;;;;5107431;28;20201;-76
2021/07/06 05:06:53;;;;;;;8.37;4.77;;;;;;;;;;5103955;28;20207;-76
2021/07/06 05:09:20;;;;;;;8.80;4.50;;;;;;;;;;5105433;28;20851;-74
2021/07/06 05:11:47;;;;;;;7.77;4.07;;;;;;;;;;5106372;28;20223;-74
2021/07/06 05:14:14;;;;;;;7.93;4.40;;;;;;;;;;5092745;28;20212;-74
2021/07/06 05:16:41;;;;;;;4.43;3.23;;;;;;;;;;5096597;28;20280;-74
2021/07/06 05:19:10;;;;;;;6.23;2.93;;;;;;;;;;5098905;28;20213;-74
2021/07/06 05:21:37;;;;;;;3.43;2.90;;;;;;;;;;5092197;28;20209;-74
2021/07/06 05:24:06;;;;;;;5.77;2.83;;;;;;;;;;5102882;28;20217;-75
2021/07/06 05:26:33;;;;;;;5.07;2.60;;;;;;;;;;5100072;28;20219;-75
2021/07/06 05:29:00;;;;;;;8.40;2.70;;;;;;;;;;5093942;28;20572;-75
2021/07/06 05:31:28;;;;;;;5.77;2.60;;;;;;;;;;5099604;27;20208;-74
2021/07/06 05:33:55;;;;;;;6.57;2.53;;;;;;;;;;5094437;28;20210;-75
2021/07/06 05:36:22;;;;;;;4.50;2.67;;;;;;;;;;5091740;28;20255;-74
2021/07/06 05:38:49;;;;;;;3.67;2.60;;;;;;;;;;5095882;28;20218;-75
2021/07/06 05:41:18;;;;;;;6.43;2.83;;;;;;;;;;5091671;28;20659;-74
2021/07/06 05:43:45;;;;;;;5.77;3.00;;;;;;;;;;5093963;28;20789;-75
2021/07/06 05:46:14;;;;;;;6.07;2.70;;;;;;;;;;5090621;28;20226;-74
2021/07/06 05:48:42;;;;;;;3.67;2.53;;;;;;;;;;5097122;28;20284;-74
2021/07/06 05:51:09;;;;;;;3.87;2.60;;;;;;;;;;5091465;28;20284;-75
2021/07/06 05:53:36;;;;;;;5.63;2.90;;;;;;;;;;5092948;28;20599;-75
2021/07/06 05:56:09;;;;;;;4.80;2.83;;;;;;;;;;5098687;28;20239;-75
2021/07/06 05:58:46;;;;;;;4.97;2.73;;;;;;;;;;5081089;28;20232;-75
2021/07/06 06:01:14;;;;;;;4.63;2.80;;;;;;;;;;5098209;28;20292;-73
2021/07/06 06:03:44;;;;;;;6.07;3.17;;;;;;;;;;5095009;28;20576;-74
2021/07/06 06:06:12;;;;;;;6.77;2.97;;;;;;;;;;5095104;28;20224;-74
2021/07/06 06:08:40;;;;;;;5.07;3.00;;;;;;;;;;5095656;28;20219;-74
2021/07/06 06:11:07;;;;;;;4.60;2.70;;;;;;;;;;5095650;28;20289;-74
2021/07/06 06:13:34;;;;;;;4.90;2.80;;;;;;;;;;5098154;28;20197;-74
2021/07/06 06:16:03;;;;;;;8.87;3.27;;;;;;;;;;5101540;28;20590;-74
2021/07/06 06:18:30;;;;;;;7.57;3.00;;;;;;;;;;5095877;28;20216;-74
2021/07/06 06:20:57;;;;;;;6.87;2.90;;;;;;;;;;5094575;28;20197;-74
2021/07/06 06:23:24;;;;;;;6.43;3.17;;;;;;;;;;5094316;28;21001;-74
2021/07/06 06:25:51;;;;;;;11.10;3.20;;;;;;;;;;5101179;28;20653;-74
2021/07/06 06:28:19;;;;;;;4.60;2.90;;;;;;;;;;5096116;28;20212;-74
2021/07/06 06:30:46;;;;;;;5.00;3.13;;;;;;;;;;5097262;28;20258;-74
2021/07/06 06:33:14;;;;;;;5.53;3.17;;;;;;;;;;5098038;28;20296;-75
2021/07/06 06:35:42;;;;;;;7.50;3.40;;;;;;;;;;5096680;28;20224;-75
2021/07/06 06:38:11;;;;;;;5.90;3.07;;;;;;;;;;5096569;28;20217;-75
2021/07/06 06:40:38;;;;;;;4.50;3.13;;;;;;;;;;5097168;28;20658;-75
2021/07/06 06:43:05;;;;;;;8.50;3.20;;;;;;;;;;5096067;28;20667;-73
2021/07/06 06:45:33;;;;;;;7.27;3.60;;;;;;;;;;5090924;28;20308;-74
2021/07/06 06:48:00;;;;;;;5.90;2.90;;;;;;;;;;5096700;28;20659;-73
2021/07/06 06:50:28;;;;;;;5.73;2.40;;;;;;;;;;5099347;28;20197;-74
2021/07/06 06:52:56;;;;;;;5.93;3.13;;;;;;;;;;5094400;28;20662;-72
2021/07/06 06:55:23;;;;;;;5.23;2.90;;;;;;;;;;5098697;28;20221;-73
2021/07/06 06:57:50;;;;;;;5.30;3.17;;;;;;;;;;5096778;28;20199;-73
2021/07/06 07:00:17;;;;;;;10.23;3.43;;;;;;;;;;5095418;28;20197;-72
2021/07/06 07:02:44;;;;;;;3.77;2.93;;;;;;;;;;5094796;28;20206;-73
2021/07/06 07:05:12;;;;;;;6.70;3.00;;;;;;;;;;5093593;28;20236;-73
2021/07/06 07:07:41;;;;;;;6.90;3.07;;;;;;;;;;5098623;28;20201;-72
2021/07/06 07:10:10;;;;;;;6.93;3.73;;;;;;;;;;5097130;28;20202;-73
2021/07/06 07:12:39;;;;;;;11.07;3.30;;;;;;;;;;5098908;28;20202;-73
2021/07/06 07:15:07;;;;;;;4.97;3.17;;;;;;;;;;5095751;28;20224;-73
2021/07/06 07:17:34;;;;;;;11.03;3.87;;;;;;;;;;5091958;28;20675;-74
2021/07/06 07:20:01;;;;;;;7.57;3.40;;;;;;;;;;5092969;28;20646;-73
2021/07/06 07:22:28;;;;;;;7.13;3.13;;;;;;;;;;5090561;28;20207;-74
2021/07/06 07:24:57;;;;;;;9.93;3.80;;;;;;;;;;5090892;28;20224;-73
2021/07/06 07:27:24;;;;;;;7.20;3.30;;;;;;;;;;5097099;28;20289;-74
2021/07/06 07:29:53;;;;;;;11.23;3.50;;;;;;;;;;5088903;28;20201;-73
2021/07/06 07:32:21;;;;;;;12.33;4.00;;;;;;;;;;5089171;28;20197;-74
2021/07/06 07:34:48;;;;;;;15.03;4.23;;;;;;;;;;5091256;28;20217;-74
2021/07/06 07:37:16;;;;;;;14.00;4.40;;;;;;;;;;5088645;28;20212;-74
2021/07/06 07:39:44;;;;;;;8.77;3.70;;;;;;;;;;5097701;28;20629;-73
2021/07/06 07:42:14;;;;;;;6.63;3.60;;;;;;;;;;5093579;28;20208;-74
2021/07/06 07:44:43;;;;;;;9.67;4.20;;;;;;;;;;5093058;28;20220;-74
2021/07/06 07:47:11;;;;;;;6.83;4.00;;;;;;;;;;5098410;28;20292;-74
2021/07/06 07:49:38;;;;;;;18.00;4.20;;;;;;;;;;5092953;28;20227;-73
2021/07/06 07:52:05;;;;;;;9.17;3.97;;;;;;;;;;5094952;28;20263;-73
2021/07/06 07:54:33;;;;;;;8.67;4.17;;;;;;;;;;5095429;28;20228;-73
2021/07/06 07:57:00;;;;;;;9.50;3.67;;;;;;;;;;5095863;28;20225;-73
2021/07/06 07:59:29;;;;;;;6.23;3.53;;;;;;;;;;5104318;28;20300;-74
2021/07/06 08:01:57;;;;;;;5.80;3.60;;;;;;;;;;5105204;28;20196;-73
2021/07/06 08:04:24;;;;;;;10.70;4.40;;;;;;;;;;5098408;28;20215;-73
2021/07/06 08:06:51;;;;;;;11.00;4.07;;;;;;;;;;5116987;28;20196;-73
2021/07/06 08:09:19;;;;;;;9.40;3.70;;;;;;;;;;5103303;28;20292;-73
2021/07/06 08:11:46;;;;;;;5.50;3.33;;;;;;;;;;5102213;28;20308;-74
2021/07/06 08:14:13;;;;;;;5.67;3.47;;;;;;;;;;5103485;28;20292;-73
2021/07/06 08:16:42;;;;;;;12.67;4.30;;;;;;;;;;5101216;28;20292;-73
2021/07/06 08:19:09;;;;;;;5.67;3.10;;;;;;;;;;5098964;28;20686;-73
2021/07/06 08:21:36;;;;;;;9.17;2.90;;;;;;;;;;5100122;28;20207;-73
2021/07/06 08:24:03;;;;;;;7.10;3.77;;;;;;;;;;5095332;28;20220;-72
2021/07/06 08:26:31;;;;;;;8.43;4.33;;;;;;;;;;5097997;28;20253;-74
2021/07/06 08:28:58;;;;;;;10.97;4.17;;;;;;;;;;5102577;28;20201;-75
2021/07/06 08:31:25;;;;;;;11.83;4.20;;;;;;;;;;5104294;28;20247;-76
2021/07/06 08:33:54;;;;;;;9.63;3.87;;;;;;;;;;5095381;28;20234;-75
2021/07/06 08:36:21;;;;;;;13.63;3.13;;;;;;;;;;5094313;28;20224;-75
2021/07/06 08:38:48;;;;;;;5.63;2.70;;;;;;;;;;5095658;28;20644;-74
2021/07/06 08:41:15;;;;;;;7.67;3.30;;;;;;;;;;5098080;27;20215;-74
2021/07/06 08:43:43;;;;;;;7.80;2.83;;;;;;;;;;5098170;28;20219;-74
2021/07/06 08:46:10;;;;;;;10.33;2.70;;;;;;;;;;5097559;28;20232;-73
2021/07/06 08:48:37;;;;;;;2.93;2.00;;;;;;;;;;5096073;28;20292;-72
2021/07/06 08:51:05;;;;;;;7.63;2.37;;;;;;;;;;5097300;28;20198;-72
2021/07/06 08:53:33;;;;;;;3.37;1.60;;;;;;;;;;5097441;28;20303;-72
2021/07/06 08:56:00;;;;;;;3.30;1.60;;;;;;;;;;5093173;28;20301;-71
2021/07/06 08:58:27;;;;;;;4.07;1.83;;;;;;;;;;5104370;27;20205;-73
2021/07/06 09:00:54;;;;;;;3.07;1.87;;;;;;;;;;5094516;28;20297;-74
2021/07/06 09:03:22;;;;;;;7.43;2.17;;;;;;;;;;5098241;28;20796;-74
2021/07/06 09:06:03;;;;;;;5.17;2.27;;;;;;;;;;5101148;28;20263;-75
2021/07/06 09:08:32;;;;;;;5.43;3.10;;;;;;;;;;5100125;28;20196;-73
2021/07/06 09:10:59;;;;;;;8.10;3.30;;;;;;;;;;5099790;28;20193;-73
2021/07/06 09:13:27;;;;;;;6.07;3.13;;;;;;;;;;5099061;28;20735;-74
2021/07/06 09:15:55;;;;;;;5.63;3.37;;;;;;;;;;5099931;28;20229;-73
2021/07/06 09:18:23;;;;;;;7.43;3.83;;;;;;;;;;5100093;28;20722;-73
2021/07/06 09:21:01;;;;;;;6.97;3.50;;;;;;;;;;5098106;28;20221;-72
2021/07/06 09:23:32;;;;;;;6.70;3.10;;;;;;;;;;5097823;28;20213;-73
2021/07/06 09:26:17;;;;;;;5.37;3.17;;;;;;;;;;5102513;28;20705;-73
2021/07/06 09:28:45;;;;;;;6.13;2.77;;;;;;;;;;5102057;28;20210;-74
2021/07/06 09:31:31;;;;;;;4.00;3.00;;;;;;;;;;5100060;28;20223;-73
2021/07/06 09:34:06;;;;;;;5.63;2.60;;;;;;;;;;5097799;28;20216;-73
2021/07/06 09:36:38;;;;;;;7.10;2.57;;;;;;;;;;5097185;28;20282;-73
2021/07/06 09:39:06;;;;;;;3.17;2.30;;;;;;;;;;5093156;28;20290;-73
2021/07/06 09:41:35;;;;;;;6.20;2.40;;;;;;;;;;5096593;27;20221;-73
2021/07/06 09:44:19;;;;;;;3.17;2.00;;;;;;;;;;5097603;28;20193;-73
2021/07/06 09:46:47;;;;;;;5.43;1.80;;;;;;;;;;5095687;28;20619;-73
2021/07/06 09:49:17;;;;;;;2.90;1.63;;;;;;;;;;5099671;28;20198;-74
2021/07/06 09:51:44;;;;;;;2.10;1.50;;;;;;;;;;5098585;28;20205;-73
2021/07/06 09:54:11;;;;;;;2.10;1.60;;;;;;;;;;5099855;28;20207;-73
2021/07/06 09:56:42;;;;;;;2.77;1.20;;;;;;;;;;5101661;28;20201;-74
2021/07/06 09:59:15;;;;;;;1.70;1.23;;;;;;;;;;5101283;28;20213;-74
2021/07/06 10:01:53;;;;;;;4.53;1.30;;;;;;;;;;5099164;28;20197;-73
2021/07/06 10:04:21;;;;;;;2.00;1.27;;;;;;;;;;5097552;28;20204;-73
2021/07/06 10:06:49;;;;;;;4.33;1.50;;;;;;;;;;5096331;28;20204;-73
2021/07/06 10:09:16;;;;;;;3.47;1.60;;;;;;;;;;5095432;28;20659;-74
2021/07/06 10:11:45;;;;;;;3.20;1.93;;;;;;;;;;5099666;28;20201;-74
2021/07/06 10:14:12;;;;;;;2.13;1.40;;;;;;;;;;5097330;28;20232;-74
2021/07/06 10:16:39;;;;;;;3.43;1.53;;;;;;;;;;5094517;28;20296;-73
2021/07/06 10:19:08;;;;;;;4.33;1.50;;;;;;;;;;5097863;28;20224;-74
2021/07/06 10:21:35;;;;;;;1.90;1.50;;;;;;;;;;5097541;28;20235;-74
2021/07/06 10:24:04;;;;;;;2.70;1.60;;;;;;;;;;5098024;28;20197;-74
2021/07/06 10:26:34;;;;;;;2.77;1.73;;;;;;;;;;5094722;28;20229;-73
2021/07/06 10:29:03;;;;;;;5.17;1.80;;;;;;;;;;5094625;28;20201;-74
2021/07/06 10:31:31;;;;;;;5.70;2.00;;;;;;;;;;5096471;28;20209;-74
2021/07/06 10:34:01;;;;;;;5.00;1.83;;;;;;;;;;5086106;22;20221;-74
2021/07/06 10:36:38;;;;;;;2.20;1.50;;;;;;;;;;5060744;28;20715;-74
2021/07/06 10:39:06;;;;;;;2.97;1.50;;;;;;;;;;5058754;28;20211;-74
2021/07/06 10:41:56;;;;;;;3.33;1.60;;;;;;;;;;5057670;28;20196;-73
2021/07/06 10:44:33;;;;;;;2.07;1.33;;;;;;;;;;5059001;28;20315;-73
2021/07/06 10:47:00;;;;;;;1.80;1.23;;;;;;;;;;5056607;28;20298;-74
2021/07/06 10:49:30;;;;;;;3.93;1.27;;;;;;;;;;5060308;28;20204;-74
2021/07/06 10:51:59;;;;;;;2.70;1.63;;;;;;;;;;5060802;28;20260;-74
2021/07/06 10:54:30;;;;;;;2.63;1.23;;;;;;;;;;5058706;28;20245;-74
2021/07/06 10:56:59;;;;;;;3.30;1.57;;;;;;;;;;5059320;28;20203;-74
2021/07/06 10:59:27;;;;;;;2.33;1.40;;;;;;;;;;5059509;28;20218;-74
2021/07/06 11:01:59;;;;;;;4.83;1.40;;;;;;;;;;5055395;28;20199;-74
2021/07/06 11:04:45;;;;;;;2.93;1.70;;;;;;;;;;5056624;28;20204;-74
2021/07/06 11:07:13;;;;;;;5.33;1.40;;;;;;;;;;5045488;28;20744;-74
2021/07/06 11:10:11;;;;;;;2.40;1.30;;;;;;;;;;5053776;28;20582;-74
2021/07/06 11:12:42;;;;;;;4.53;1.60;;;;;;;;;;4982735;28;20240;-72
2021/07/06 11:15:16;;;;;;;3.23;1.67;;;;;;;;;;5041591;28;20668;-73
2021/07/06 11:17:45;;;;;;;1.10;0.90;;;;;;;;;;5057809;28;20308;-73
2021/07/06 11:20:13;;;;;;;1.37;0.90;;;;;;;;;;5055575;28;20221;-73
2021/07/06 11:22:41;;;;;;;1.83;0.97;;;;;;;;;;5054321;28;20206;-73
2021/07/06 11:25:18;;;;;;;1.67;1.17;;;;;;;;;;5056639;28;20444;-74
2021/07/06 11:27:55;;;;;;;1.27;1.00;;;;;;;;;;5058560;28;20265;-77
2021/07/06 11:30:27;;;;;;;1.67;0.80;;;;;;;;;;5054925;28;20763;-76
2021/07/06 11:33:09;;;;;;;1.30;0.90;;;;;;;;;;5059682;28;20757;-75
2021/07/06 11:35:38;;;;;;;1.50;0.90;;;;;;;;;;5054651;28;20316;-75
2021/07/06 11:38:06;;;;;;;2.23;0.90;;;;;;;;;;5054746;28;20277;-75
2021/07/06 11:40:34;;;;;;;1.53;1.00;;;;;;;;;;5056230;28;20225;-74
2021/07/06 11:43:01;;;;;;;3.80;1.10;;;;;;;;;;5058349;28;20210;-75
2021/07/06 11:45:29;;;;;;;1.00;0.80;;;;;;;;;;5057480;28;20242;-75
2021/07/06 11:48:06;;;;;;;2.43;1.00;;;;;;;;;;5056673;28;20198;-75
2021/07/06 11:50:35;;;;;;;1.67;1.00;;;;;;;;;;5058295;28;20300;-75
2021/07/06 11:53:02;;;;;;;1.73;0.80;;;;;;;;;;5057142;28;20205;-75
2021/07/06 11:55:31;;;;;;;2.33;1.10;;;;;;;;;;5058540;28;20237;-75
2021/07/06 11:57:59;;;;;;;2.67;1.23;;;;;;;;;;5058998;28;20668;-75
2021/07/06 12:00:27;;;;;;;3.93;0.90;;;;;;;;;;5057051;28;20305;-75
2021/07/06 12:03:09;;;;;;;2.27;1.00;;;;;;;;;;5061187;28;20206;-75
2021/07/06 12:05:38;;;;;;;1.50;0.90;;;;;;;;;;5056357;28;20218;-75
2021/07/06 12:08:12;;;;;;;2.20;1.00;;;;;;;;;;5054817;28;20213;-75
2021/07/06 12:10:51;;;;;;;1.27;1.00;;;;;;;;;;5059191;28;20230;-75
2021/07/06 12:13:18;;;;;;;2.63;1.17;;;;;;;;;;5058313;28;20208;-75
2021/07/06 12:15:46;;;;;;;4.00;1.07;;;;;;;;;;5055283;28;20222;-76
2021/07/06 12:18:13;;;;;;;0.90;0.80;;;;;;;;;;5059653;28;20195;-76
2021/07/06 12:20:42;;;;;;;1.57;0.83;;;;;;;;;;5058116;28;20573;-76
2021/07/06 12:23:09;;;;;;;1.07;0.90;;;;;;;;;;5057514;28;20199;-76
2021/07/06 12:25:36;;;;;;;1.07;0.90;;;;;;;;;;5054644;28;20218;-76
2021/07/06 12:28:05;;;;;;;3.90;0.90;;;;;;;;;;5059683;28;20667;-76
2021/07/06 12:30:32;;;;;;;0.70;0.70;;;;;;;;;;5056166;28;20195;-76
2021/07/06 12:33:06;;;;;;;1.70;1.00;;;;;;;;;;5059799;28;20212;-76
2021/07/06 12:35:33;;;;;;;0.80;0.80;;;;;;;;;;5055459;28;20221;-76
2021/07/06 12:38:05;;;;;;;1.40;1.00;;;;;;;;;;5056950;28;20232;-76
2021/07/06 12:40:34;;;;;;;1.17;0.90;;;;;;;;;;5056443;28;20306;-76
2021/07/06 12:43:09;;;;;;;1.20;0.90;;;;;;;;;;5057886;28;20199;-76
2021/07/06 12:45:37;;;;;;;0.83;0.80;;;;;;;;;;5057643;28;20229;-76
2021/07/06 12:48:04;;;;;;;1.87;1.10;;;;;;;;;;5059708;28;20225;-76
2021/07/06 12:50:32;;;;;;;2.20;1.10;;;;;;;;;;5062211;28;20213;-76
2021/07/06 12:53:06;;;;;;;1.40;1.10;;;;;;;;;;5060184;28;20545;-76
2021/07/06 12:55:34;;;;;;;1.70;0.90;;;;;;;;;;5058315;28;20261;-76
2021/07/06 12:58:11;;;;;;;1.57;0.80;;;;;;;;;;5055007;28;20306;-75
2021/07/06 13:00:40;;;;;;;1.20;1.00;;;;;;;;;;5059488;28;20219;-75
2021/07/06 13:03:08;;;;;;;2.27;1.10;;;;;;;;;;5060817;28;20285;-75
2021/07/06 13:05:38;;;;;;;1.67;1.10;;;;;;;;;;5058154;28;20254;-75
2021/07/06 13:08:06;;;;;;;1.77;1.10;;;;;;;;;;5058716;28;20574;-75
2021/07/06 13:10:35;;;;;;;1.20;0.93;;;;;;;;;;5058206;28;20198;-75
2021/07/06 13:13:03;;;;;;;4.33;1.20;;;;;;;;;;5056986;28;20583;-75
2021/07/06 13:15:34;;;;;;;7.77;0.97;;;;;;;;;;5057653;28;20234;-75
2021/07/06 13:18:02;;;;;;;2.67;1.10;;;;;;;;;;5055388;28;20286;-75
2021/07/06 13:20:30;;;;;;;3.67;1.17;;;;;;;;;;5055461;28;20240;-75
2021/07/06 13:22:57;;;;;;;2.73;1.17;;;;;;;;;;5055524;28;20203;-75
2021/07/06 13:25:25;;;;;;;3.50;1.00;;;;;;;;;;5054436;28;20712;-75
2021/07/06 13:27:58;;;;;;;2.20;1.03;;;;;;;;;;5058635;28;20210;-76
2021/07/06 13:30:25;;;;;;;1.33;1.00;;;;;;;;;;5056449;28;20660;-75
2021/07/06 13:32:53;;;;;;;1.50;1.00;;;;;;;;;;5059075;28;20329;-75
2021/07/06 13:35:20;;;;;;;2.23;1.10;;;;;;;;;;5052469;28;20236;-75
2021/07/06 13:37:49;;;;;;;2.30;1.00;;;;;;;;;;5057841;28;20743;-75
2021/07/06 13:40:17;;;;;;;2.13;1.27;;;;;;;;;;5060208;28;20219;-75
2021/07/06 13:42:45;;;;;;;2.27;1.20;;;;;;;;;;5058820;28;20207;-75
2021/07/06 13:45:15;;;;;;;2.13;1.17;;;;;;;;;;5056847;28;20913;-75
2021/07/06 13:47:42;;;;;;;2.70;1.03;;;;;;;;;;5059579;28;20213;-75
2021/07/06 13:50:10;;;;;;;4.40;1.10;;;;;;;;;;5059975;28;20306;-75
2021/07/06 13:52:38;;;;;;;1.00;0.90;;;;;;;;;;5054517;28;20699;-75
2021/07/06 13:55:05;;;;;;;1.77;1.00;;;;;;;;;;5050828;28;20626;-75
2021/07/06 13:57:34;;;;;;;1.77;1.00;;;;;;;;;;5056965;28;20290;-75
2021/07/06 14:00:01;;;;;;;4.87;1.10;;;;;;;;;;5053795;28;20211;-75
2021/07/06 14:02:30;;;;;;;4.10;0.90;;;;;;;;;;5057494;28;20211;-75
2021/07/06 14:04:57;;;;;;;1.97;1.23;;;;;;;;;;5059614;28;20236;-75
2021/07/06 14:07:24;;;;;;;2.10;1.20;;;;;;;;;;5059264;28;20707;-75
2021/07/06 14:09:51;;;;;;;4.83;1.20;;;;;;;;;;5058930;28;20664;-75
2021/07/06 14:12:19;;;;;;;3.57;1.10;;;;;;;;;;5058327;28;20289;-74
2021/07/06 14:14:46;;;;;;;0.97;0.80;;;;;;;;;;5060461;28;20237;-74
2021/07/06 14:17:13;;;;;;;2.30;0.93;;;;;;;;;;5057561;28;20686;-74
2021/07/06 14:19:42;;;;;;;1.50;0.90;;;;;;;;;;5058324;28;20210;-74
2021/07/06 14:22:09;;;;;;;2.00;1.00;;;;;;;;;;5058427;28;20537;-75
2021/07/06 14:24:36;;;;;;;3.43;1.10;;;;;;;;;;5056541;28;20284;-75
2021/07/06 14:27:04;;;;;;;1.37;0.80;;;;;;;;;;5059152;28;20211;-75
2021/07/06 14:29:31;;;;;;;1.10;0.70;;;;;;;;;;5058502;28;20665;-75
2021/07/06 14:31:59;;;;;;;1.87;0.97;;;;;;;;;;5043965;28;20660;-74
2021/07/06 14:34:26;;;;;;;2.43;0.90;;;;;;;;;;5061440;28;20672;-75
2021/07/06 14:36:55;;;;;;;2.83;0.97;;;;;;;;;;5058099;28;20746;-75
2021/07/06 14:39:22;;;;;;;1.00;0.70;;;;;;;;;;5058369;28;20302;-75
2021/07/06 14:41:51;;;;;;;1.30;0.90;;;;;;;;;;5059196;28;20250;-75
2021/07/06 14:44:19;;;;;;;0.97;0.67;;;;;;;;;;5059662;28;20222;-75
2021/07/06 14:46:46;;;;;;;2.10;0.67;;;;;;;;;;5060108;28;20225;-75
2021/07/06 14:49:13;;;;;;;1.80;0.60;;;;;;;;;;5060657;28;20207;-75